Warning: fopen(/var/www/metroair/shared/private/wxdata/metar/AVWX/metar_KWRI): failed to open stream: Permission denied in /var/www/metroair/shared/private/library/orig_library/lib_airport.php on line 346

Warning: fwrite() expects parameter 1 to be resource, boolean given in /var/www/metroair/shared/private/library/orig_library/lib_airport.php on line 347

Warning: fclose() expects parameter 1 to be resource, boolean given in /var/www/metroair/shared/private/library/orig_library/lib_airport.php on line 348

Warning: fopen(/var/www/metroair/shared/private/wxdata/TAF/AVWX/taf_KWRI): failed to open stream: Permission denied in /var/www/metroair/shared/private/library/orig_library/lib_airport.php on line 533

Warning: fwrite() expects parameter 1 to be resource, boolean given in /var/www/metroair/shared/private/library/orig_library/lib_airport.php on line 534

Warning: fclose() expects parameter 1 to be resource, boolean given in /var/www/metroair/shared/private/library/orig_library/lib_airport.php on line 535

MET8601 - McGuire AFB to Boston

Boeing 757-200W
773MU - Charter
0 hrs 55 mins
215 nm
Ferry - M | W | F

Departure

Departing from
McGuire AFB (WRI)
Departure gate
Ramp
Scheduled Departure
GMT 0500
Local 0000
METAR KWRI 161158Z AUTO 32003KT 10SM CLR M06/M08 A3043 RMK AO2 SLP306 T10581079 11025 21059 53003
TAF TAF KWRI 161000Z 1610/1716 36006KT 9999 SCT200 QNH3038INS BECMG 1702/1703 18006KT 9999 FEW020 OVC100 QNH3032INS BECMG 1705/1706 18006KT 9999 BKN020 OVC080 QNH3027INS TX06/1620Z TNM05/1610Z
  • No charts available

Arrival

Arriving at
Boston (BOS)
Arrival gate
Scheduled Arrival
GMT 0555
Local 0055
METAR KBOS 161154Z 00000KT 10SM CLR M04/M09 A3044 RMK AO2 SLP305 T10441094 11028 21050 55001 $
TAF KBOS 161120Z 1612/1718 23007KT P6SM SKC FM171100 29004KT P6SM SCT250 FM171400 35005KT P6SM SCT200 FM171700 06005KT P6SM BKN150

Route Map

Planning Resources

PTPL5 SHLEP HTO ORW7
RBV HFD PUT KBOS
Route:
OFP Layout:
Units:
Detailed Navlog:
ETOPS Planning:
Plan Stepclimbs:
Runway Analysis:
Include NOTAMS:
FIR NOTAMS:
Flight Maps:

Return Flights

MET8600
Boeing 757-200W
1600 GMT

Popularity

Hub Current Bids PiReps this month Total PiReps
KMCI 0 0 1
KLAX 0 0 1
KBOS 0 0 1